sensor_id;sensor_type;location;lat;lon;timestamp;pressure;altitude;pressure_sealevel;temperature;humidity
12951;BME280;6540;50.858;7.232;2022-10-15T00:00:33;51677.03;;;-142.34;34.06
12951;BME280;6540;50.858;7.232;2022-10-15T00:02:58;51673.00;;;-142.34;34.06
12951;BME280;6540;50.858;7.232;2022-10-15T00:05:23;51685.09;;;-142.34;34.17
12951;BME280;6540;50.858;7.232;2022-10-15T00:07:49;51685.09;;;-142.34;34.79
12951;BME280;6540;50.858;7.232;2022-10-15T00:10:15;51747.63;;;-142.34;35.54
12951;BME280;6540;50.858;7.232;2022-10-15T00:12:41;51703.25;;;-142.34;35.08
12951;BME280;6540;50.858;7.232;2022-10-15T00:15:07;51721.41;;;-142.34;35.35
12951;BME280;6540;50.858;7.232;2022-10-15T00:17:34;51729.47;;;-142.34;35.30
12951;BME280;6540;50.858;7.232;2022-10-15T00:20:00;51717.38;;;-142.34;35.42
12951;BME280;6540;50.858;7.232;2022-10-15T00:22:25;51727.44;;;-142.34;35.06
12951;BME280;6540;50.858;7.232;2022-10-15T00:24:50;51743.59;;;-142.34;35.54
12951;BME280;6540;50.858;7.232;2022-10-15T00:27:16;51751.66;;;-142.34;35.23
12951;BME280;6540;50.858;7.232;2022-10-15T00:29:41;51703.25;;;-142.34;35.58
12951;BME280;6540;50.858;7.232;2022-10-15T00:32:07;51741.56;;;-142.34;35.11
12951;BME280;6540;50.858;7.232;2022-10-15T00:34:32;51697.19;;;-142.34;34.56
12951;BME280;6540;50.858;7.232;2022-10-15T00:36:58;51721.41;;;-142.34;34.70
12951;BME280;6540;50.858;7.232;2022-10-15T00:39:23;51681.06;;;-142.34;34.24
12951;BME280;6540;50.858;7.232;2022-10-15T00:41:48;51701.22;;;-142.34;34.63
12951;BME280;6540;50.858;7.232;2022-10-15T00:46:47;51681.06;;;-142.34;34.70
12951;BME280;6540;50.858;7.232;2022-10-15T00:51:52;51689.13;;;-142.34;34.28
12951;BME280;6540;50.858;7.232;2022-10-15T00:54:19;51687.09;;;-142.34;34.50
12951;BME280;6540;50.858;7.232;2022-10-15T00:56:46;51701.22;;;-142.34;34.50
12951;BME280;6540;50.858;7.232;2022-10-15T00:59:15;51717.38;;;-142.34;34.46
12951;BME280;6540;50.858;7.232;2022-10-15T01:01:41;51725.44;;;-142.34;35.09
12951;BME280;6540;50.858;7.232;2022-10-15T01:04:07;51707.28;;;-142.34;35.36
12951;BME280;6540;50.858;7.232;2022-10-15T01:06:34;51719.38;;;-142.34;34.40
12951;BME280;6540;50.858;7.232;2022-10-15T01:09:00;51707.28;;;-142.34;34.33
12951;BME280;6540;50.858;7.232;2022-10-15T01:11:39;51693.16;;;-142.34;34.09
12951;BME280;6540;50.858;7.232;2022-10-15T01:17:06;51717.38;;;-142.34;34.30
12951;BME280;6540;50.858;7.232;2022-10-15T01:28:02;51717.38;;;-142.34;34.33
12951;BME280;6540;50.858;7.232;2022-10-15T01:30:39;51725.44;;;-142.34;34.16
12951;BME280;6540;50.858;7.232;2022-10-15T01:36:25;51713.34;;;-142.34;34.00
12951;BME280;6540;50.858;7.232;2022-10-15T01:38:53;51705.25;;;-142.34;33.73
12951;BME280;6540;50.858;7.232;2022-10-15T01:41:29;51713.34;;;-142.34;33.91
12951;BME280;6540;50.858;7.232;2022-10-15T01:46:33;51693.16;;;-142.34;33.58
12951;BME280;6540;50.858;7.232;2022-10-15T01:49:01;51685.09;;;-142.34;33.75
12951;BME280;6540;50.858;7.232;2022-10-15T01:51:29;51719.38;;;-142.34;34.02
12951;BME280;6540;50.858;7.232;2022-10-15T01:53:58;51668.97;;;-142.34;33.89
12951;BME280;6540;50.858;7.232;2022-10-15T01:56:25;51681.06;;;-142.34;33.60
12951;BME280;6540;50.858;7.232;2022-10-15T01:58:53;51701.22;;;-142.34;33.84
12951;BME280;6540;50.858;7.232;2022-10-15T02:01:20;51685.09;;;-142.34;34.76
12951;BME280;6540;50.858;7.232;2022-10-15T02:03:50;51701.22;;;-142.34;34.60
12951;BME280;6540;50.858;7.232;2022-10-15T02:09:15;51715.34;;;-142.34;34.31
12951;BME280;6540;50.858;7.232;2022-10-15T02:15:09;51735.53;;;-142.34;33.85
12951;BME280;6540;50.858;7.232;2022-10-15T02:17:57;51719.38;;;-142.34;34.50
12951;BME280;6540;50.858;7.232;2022-10-15T02:23:03;51729.47;;;-142.34;34.19
12951;BME280;6540;50.858;7.232;2022-10-15T02:25:34;51699.22;;;-142.34;33.63
12951;BME280;6540;50.858;7.232;2022-10-15T02:28:02;51701.22;;;-142.34;33.73
12951;BME280;6540;50.858;7.232;2022-10-15T02:30:30;51719.38;;;-142.34;33.77
12951;BME280;6540;50.858;7.232;2022-10-15T02:32:57;51707.28;;;-142.34;33.80
12951;BME280;6540;50.858;7.232;2022-10-15T02:35:25;51689.13;;;-142.34;33.64
12951;BME280;6540;50.858;7.232;2022-10-15T02:37:53;51685.09;;;-142.34;33.88
12951;BME280;6540;50.858;7.232;2022-10-15T02:40:21;51701.22;;;-142.34;33.90
12951;BME280;6540;50.858;7.232;2022-10-15T02:42:50;51729.47;;;-142.34;34.10
12951;BME280;6540;50.858;7.232;2022-10-15T02:45:15;51705.25;;;-142.34;34.78
12951;BME280;6540;50.858;7.232;2022-10-15T02:47:41;51733.50;;;-142.34;35.08
12951;BME280;6540;50.858;7.232;2022-10-15T02:50:06;51735.53;;;-142.34;34.91
12951;BME280;6540;50.858;7.232;2022-10-15T02:52:31;51751.66;;;-142.34;34.74
12951;BME280;6540;50.858;7.232;2022-10-15T02:54:57;51719.38;;;-142.34;34.48
12951;BME280;6540;50.858;7.232;2022-10-15T02:57:22;51727.44;;;-142.34;34.95
12951;BME280;6540;50.858;7.232;2022-10-15T02:59:47;51753.69;;;-142.34;34.56
12951;BME280;6540;50.858;7.232;2022-10-15T03:02:13;51739.56;;;-142.34;34.17
12951;BME280;6540;50.858;7.232;2022-10-15T03:04:38;51689.13;;;-142.34;33.92
12951;BME280;6540;50.858;7.232;2022-10-15T03:07:03;51703.25;;;-142.34;33.85
12951;BME280;6540;50.858;7.232;2022-10-15T03:09:29;51717.38;;;-142.34;34.43
12951;BME280;6540;50.858;7.232;2022-10-15T03:11:54;51725.44;;;-142.34;34.75
12951;BME280;6540;50.858;7.232;2022-10-15T03:14:19;51713.34;;;-142.34;34.16
12951;BME280;6540;50.858;7.232;2022-10-15T03:16:44;51707.28;;;-142.34;33.98
12951;BME280;6540;50.858;7.232;2022-10-15T03:19:10;51721.41;;;-142.34;33.83
12951;BME280;6540;50.858;7.232;2022-10-15T03:21:35;51719.38;;;-142.34;34.87
12951;BME280;6540;50.858;7.232;2022-10-15T03:24:01;51745.59;;;-142.34;35.64
12951;BME280;6540;50.858;7.232;2022-10-15T03:26:26;51743.59;;;-142.34;34.97
12951;BME280;6540;50.858;7.232;2022-10-15T03:28:51;51745.59;;;-142.34;34.71
12951;BME280;6540;50.858;7.232;2022-10-15T03:31:17;51733.50;;;-142.34;34.53
12951;BME280;6540;50.858;7.232;2022-10-15T03:33:42;51693.16;;;-142.34;34.81
12951;BME280;6540;50.858;7.232;2022-10-15T03:36:08;51729.47;;;-142.34;34.31
12951;BME280;6540;50.858;7.232;2022-10-15T03:38:34;51725.44;;;-142.34;34.58
12951;BME280;6540;50.858;7.232;2022-10-15T03:40:59;51727.44;;;-142.34;34.58
12951;BME280;6540;50.858;7.232;2022-10-15T03:43:25;51733.50;;;-142.34;33.90
12951;BME280;6540;50.858;7.232;2022-10-15T03:45:51;51677.03;;;-142.34;33.96
12951;BME280;6540;50.858;7.232;2022-10-15T03:48:17;51705.25;;;-142.34;34.07
12951;BME280;6540;50.858;7.232;2022-10-15T03:50:44;51721.41;;;-142.34;33.89
12951;BME280;6540;50.858;7.232;2022-10-15T03:53:10;51713.34;;;-142.34;33.97
12951;BME280;6540;50.858;7.232;2022-10-15T03:55:35;51660.88;;;-142.34;33.84
12951;BME280;6540;50.858;7.232;2022-10-15T03:58:01;51729.47;;;-142.34;33.58
12951;BME280;6540;50.858;7.232;2022-10-15T04:00:26;51693.16;;;-142.34;34.05
12951;BME280;6540;50.858;7.232;2022-10-15T04:02:52;51719.38;;;-142.34;33.92
12951;BME280;6540;50.858;7.232;2022-10-15T04:05:18;51725.44;;;-142.34;33.86
12951;BME280;6540;50.858;7.232;2022-10-15T04:07:44;51717.38;;;-142.34;34.00
12951;BME280;6540;50.858;7.232;2022-10-15T04:10:09;51697.19;;;-142.34;33.87
12951;BME280;6540;50.858;7.232;2022-10-15T04:12:34;51689.13;;;-142.34;33.55
12951;BME280;6540;50.858;7.232;2022-10-15T04:15:00;51701.22;;;-142.34;33.55
12951;BME280;6540;50.858;7.232;2022-10-15T04:17:25;51713.34;;;-142.34;33.71
12951;BME280;6540;50.858;7.232;2022-10-15T04:19:50;51749.66;;;-142.34;33.55
12951;BME280;6540;50.858;7.232;2022-10-15T04:22:16;51693.16;;;-142.34;33.32
12951;BME280;6540;50.858;7.232;2022-10-15T04:24:41;51703.25;;;-142.34;33.72
12951;BME280;6540;50.858;7.232;2022-10-15T04:27:07;51717.38;;;-142.34;33.85
12951;BME280;6540;50.858;7.232;2022-10-15T04:29:32;51733.50;;;-142.34;34.30
12951;BME280;6540;50.858;7.232;2022-10-15T04:31:57;51737.53;;;-142.34;35.22
12951;BME280;6540;50.858;7.232;2022-10-15T04:34:23;51747.63;;;-142.34;35.57
12951;BME280;6540;50.858;7.232;2022-10-15T04:36:49;51753.69;;;-142.34;35.40
12951;BME280;6540;50.858;7.232;2022-10-15T04:39:14;51717.38;;;-142.34;33.93
12951;BME280;6540;50.858;7.232;2022-10-15T04:41:40;51701.22;;;-142.34;34.50
12951;BME280;6540;50.858;7.232;2022-10-15T04:44:05;51701.22;;;-142.34;34.14
12951;BME280;6540;50.858;7.232;2022-10-15T04:46:31;51729.47;;;-142.34;35.66
12951;BME280;6540;50.858;7.232;2022-10-15T04:48:56;51741.56;;;-142.34;35.01
12951;BME280;6540;50.858;7.232;2022-10-15T04:51:24;51713.34;;;-142.34;34.44
12951;BME280;6540;50.858;7.232;2022-10-15T04:53:49;51705.25;;;-142.34;33.92
12951;BME280;6540;50.858;7.232;2022-10-15T04:56:17;51717.38;;;-142.34;33.76
12951;BME280;6540;50.858;7.232;2022-10-15T04:58:44;51693.16;;;-142.34;33.58
12951;BME280;6540;50.858;7.232;2022-10-15T05:01:12;51697.19;;;-142.34;33.80
12951;BME280;6540;50.858;7.232;2022-10-15T05:03:40;51689.13;;;-142.34;33.49
12951;BME280;6540;50.858;7.232;2022-10-15T05:06:17;51689.13;;;-142.34;33.45
12951;BME280;6540;50.858;7.232;2022-10-15T05:08:43;51656.84;;;-142.34;33.47
12951;BME280;6540;50.858;7.232;2022-10-15T05:11:12;51685.09;;;-142.34;33.75
12951;BME280;6540;50.858;7.232;2022-10-15T05:13:37;51664.91;;;-142.34;33.78
12951;BME280;6540;50.858;7.232;2022-10-15T05:18:41;51677.03;;;-142.34;33.78
12951;BME280;6540;50.858;7.232;2022-10-15T05:21:08;51693.16;;;-142.34;34.19
12951;BME280;6540;50.858;7.232;2022-10-15T05:23:34;51701.22;;;-142.34;34.53
12951;BME280;6540;50.858;7.232;2022-10-15T05:26:03;51701.22;;;-142.34;34.24
12951;BME280;6540;50.858;7.232;2022-10-15T05:28:29;51705.25;;;-142.34;34.76
12951;BME280;6540;50.858;7.232;2022-10-15T05:30:54;51717.38;;;-142.34;34.63
12951;BME280;6540;50.858;7.232;2022-10-15T05:33:20;51773.84;;;-142.34;35.50
12951;BME280;6540;50.858;7.232;2022-10-15T05:35:45;51713.34;;;-142.34;34.67
12951;BME280;6540;50.858;7.232;2022-10-15T05:38:10;51737.53;;;-142.34;34.31
12951;BME280;6540;50.858;7.232;2022-10-15T05:40:36;51749.66;;;-142.34;34.48
12951;BME280;6540;50.858;7.232;2022-10-15T05:43:01;51729.47;;;-142.34;34.25
12951;BME280;6540;50.858;7.232;2022-10-15T05:45:26;51717.38;;;-142.34;33.92
12951;BME280;6540;50.858;7.232;2022-10-15T05:47:55;51717.38;;;-142.34;34.26
12951;BME280;6540;50.858;7.232;2022-10-15T05:50:21;51737.53;;;-142.34;34.09
12951;BME280;6540;50.858;7.232;2022-10-15T05:52:47;51737.53;;;-142.34;34.53
12951;BME280;6540;50.858;7.232;2022-10-15T05:55:12;51737.53;;;-142.34;34.19
12951;BME280;6540;50.858;7.232;2022-10-15T05:57:38;51737.53;;;-142.34;34.30
12951;BME280;6540;50.858;7.232;2022-10-15T06:00:07;51717.38;;;-142.34;35.76
12951;BME280;6540;50.858;7.232;2022-10-15T06:02:32;51777.88;;;-142.34;36.44
12951;BME280;6540;50.858;7.232;2022-10-15T06:04:58;51783.94;;;-142.34;35.93
12951;BME280;6540;50.858;7.232;2022-10-15T06:07:23;51761.75;;;-142.34;34.87
12951;BME280;6540;50.858;7.232;2022-10-15T06:09:48;51753.69;;;-142.34;34.38
12951;BME280;6540;50.858;7.232;2022-10-15T06:12:14;51719.38;;;-142.34;34.23
12951;BME280;6540;50.858;7.232;2022-10-15T06:14:39;51705.25;;;-142.34;34.14
12951;BME280;6540;50.858;7.232;2022-10-15T06:17:04;51689.13;;;-142.34;34.06
12951;BME280;6540;50.858;7.232;2022-10-15T06:19:30;51751.66;;;-142.34;35.01
12951;BME280;6540;50.858;7.232;2022-10-15T06:21:55;51717.38;;;-142.34;34.07
12951;BME280;6540;50.858;7.232;2022-10-15T06:24:20;51707.28;;;-142.34;34.11
12951;BME280;6540;50.858;7.232;2022-10-15T06:26:46;51735.53;;;-142.34;34.86
12951;BME280;6540;50.858;7.232;2022-10-15T06:29:11;51745.59;;;-142.34;34.37
12951;BME280;6540;50.858;7.232;2022-10-15T06:31:36;51707.28;;;-142.34;33.45
12951;BME280;6540;50.858;7.232;2022-10-15T06:34:02;51677.03;;;-142.34;33.74
12951;BME280;6540;50.858;7.232;2022-10-15T06:36:27;51725.44;;;-142.34;33.56
12951;BME280;6540;50.858;7.232;2022-10-15T06:38:52;51713.34;;;-142.34;33.55
12951;BME280;6540;50.858;7.232;2022-10-15T06:41:17;51705.25;;;-142.34;33.58
12951;BME280;6540;50.858;7.232;2022-10-15T06:43:43;51668.97;;;-142.34;33.48
12951;BME280;6540;50.858;7.232;2022-10-15T06:46:10;51697.19;;;-142.34;33.85
12951;BME280;6540;50.858;7.232;2022-10-15T06:48:36;51699.22;;;-142.34;33.86
12951;BME280;6540;50.858;7.232;2022-10-15T06:51:01;51707.28;;;-142.34;34.64
12951;BME280;6540;50.858;7.232;2022-10-15T06:53:28;51717.38;;;-142.34;34.90
12951;BME280;6540;50.858;7.232;2022-10-15T06:55:58;51703.25;;;-142.34;34.46
12951;BME280;6540;50.858;7.232;2022-10-15T06:58:24;51721.41;;;-142.34;35.21
12951;BME280;6540;50.858;7.232;2022-10-15T07:00:49;51707.28;;;-142.34;34.48
12951;BME280;6540;50.858;7.232;2022-10-15T07:03:15;51707.28;;;-142.34;35.18
12951;BME280;6540;50.858;7.232;2022-10-15T07:05:40;51781.91;;;-142.34;35.11
12951;BME280;6540;50.858;7.232;2022-10-15T07:08:05;51713.34;;;-142.34;34.14
12951;BME280;6540;50.858;7.232;2022-10-15T07:10:30;51701.22;;;-142.34;33.84
12951;BME280;6540;50.858;7.232;2022-10-15T07:12:59;51701.22;;;-142.34;34.20
12951;BME280;6540;50.858;7.232;2022-10-15T07:15:24;51685.09;;;-142.34;34.04
12951;BME280;6540;50.858;7.232;2022-10-15T07:17:51;51652.81;;;-142.34;33.78
12951;BME280;6540;50.858;7.232;2022-10-15T07:20:18;51681.06;;;-142.34;33.97
12951;BME280;6540;50.858;7.232;2022-10-15T07:22:43;51701.22;;;-142.34;34.04
12951;BME280;6540;50.858;7.232;2022-10-15T07:25:09;51685.09;;;-142.34;33.63
12951;BME280;6540;50.858;7.232;2022-10-15T07:27:36;51654.84;;;-142.34;34.14
12951;BME280;6540;50.858;7.232;2022-10-15T07:30:02;51695.19;;;-142.34;34.58
12951;BME280;6540;50.858;7.232;2022-10-15T07:32:28;51707.28;;;-142.34;34.10
12951;BME280;6540;50.858;7.232;2022-10-15T07:34:53;51668.97;;;-142.34;34.26
12951;BME280;6540;50.858;7.232;2022-10-15T07:37:18;51715.34;;;-142.34;35.64
12951;BME280;6540;50.858;7.232;2022-10-15T07:39:44;51681.06;;;-142.34;35.23
12951;BME280;6540;50.858;7.232;2022-10-15T07:42:09;51713.34;;;-142.34;35.26
12951;BME280;6540;50.858;7.232;2022-10-15T07:44:34;51697.19;;;-142.34;34.18
12951;BME280;6540;50.858;7.232;2022-10-15T07:47:00;51693.16;;;-142.34;34.80
12951;BME280;6540;50.858;7.232;2022-10-15T07:49:25;51675.00;;;-142.34;34.02
12951;BME280;6540;50.858;7.232;2022-10-15T07:51:50;51658.88;;;-142.34;33.42
12951;BME280;6540;50.858;7.232;2022-10-15T07:54:16;51673.00;;;-142.34;36.42
12951;BME280;6540;50.858;7.232;2022-10-15T07:56:41;51699.22;;;-142.34;35.82
12951;BME280;6540;50.858;7.232;2022-10-15T07:59:15;51701.22;;;-142.34;35.41
12951;BME280;6540;50.858;7.232;2022-10-15T08:01:41;51693.16;;;-142.34;35.03
12951;BME280;6540;50.858;7.232;2022-10-15T08:04:12;51721.41;;;-142.34;35.44
12951;BME280;6540;50.858;7.232;2022-10-15T08:06:38;51711.31;;;-142.34;34.74
12951;BME280;6540;50.858;7.232;2022-10-15T08:09:04;51658.88;;;-142.34;34.00
12951;BME280;6540;50.858;7.232;2022-10-15T08:11:29;51652.81;;;-142.34;33.90
12951;BME280;6540;50.858;7.232;2022-10-15T08:13:55;51670.97;;;-142.34;34.21
12951;BME280;6540;50.858;7.232;2022-10-15T08:16:20;51705.25;;;-142.34;35.32
12951;BME280;6540;50.858;7.232;2022-10-15T08:18:45;51693.16;;;-142.34;34.96
12951;BME280;6540;50.858;7.232;2022-10-15T08:21:11;51677.03;;;-142.34;34.70
12951;BME280;6540;50.858;7.232;2022-10-15T08:23:37;51681.06;;;-142.34;34.41
12951;BME280;6540;50.858;7.232;2022-10-15T08:26:03;51656.84;;;-142.34;34.52
12951;BME280;6540;50.858;7.232;2022-10-15T08:28:30;51673.00;;;-142.34;34.75
12951;BME280;6540;50.858;7.232;2022-10-15T08:30:57;51664.91;;;-142.34;34.54
12951;BME280;6540;50.858;7.232;2022-10-15T08:33:22;51664.91;;;-142.34;35.11
12951;BME280;6540;50.858;7.232;2022-10-15T08:35:48;51656.84;;;-142.34;34.50
12951;BME280;6540;50.858;7.232;2022-10-15T08:38:13;51662.91;;;-142.34;34.77
12951;BME280;6540;50.858;7.232;2022-10-15T08:40:39;51656.84;;;-142.34;34.60
12951;BME280;6540;50.858;7.232;2022-10-15T08:43:37;51640.72;;;-142.34;33.69
12951;BME280;6540;50.858;7.232;2022-10-15T08:46:15;51668.97;;;-142.34;33.91
12951;BME280;6540;50.858;7.232;2022-10-15T08:48:52;51616.50;;;-142.34;33.75
12951;BME280;6540;50.858;7.232;2022-10-15T08:51:47;51685.09;;;-142.34;35.01
12951;BME280;6540;50.858;7.232;2022-10-15T08:54:16;51666.94;;;-142.34;33.86
12951;BME280;6540;50.858;7.232;2022-10-15T08:56:46;51636.69;;;-142.34;33.63
12951;BME280;6540;50.858;7.232;2022-10-15T09:02:07;51681.06;;;-142.34;34.85
12951;BME280;6540;50.858;7.232;2022-10-15T09:07:58;51713.34;;;-142.34;34.55
12951;BME280;6540;50.858;7.232;2022-10-15T09:13:07;51701.22;;;-142.34;35.54
12951;BME280;6540;50.858;7.232;2022-10-15T09:15:42;51695.19;;;-142.34;36.13
12951;BME280;6540;50.858;7.232;2022-10-15T09:18:17;51697.19;;;-142.34;35.69
12951;BME280;6540;50.858;7.232;2022-10-15T09:20:44;51681.06;;;-142.34;34.63
12951;BME280;6540;50.858;7.232;2022-10-15T09:23:19;51711.31;;;-142.34;35.22
12951;BME280;6540;50.858;7.232;2022-10-15T09:25:50;51679.03;;;-142.34;35.25
12951;BME280;6540;50.858;7.232;2022-10-15T09:28:19;51644.75;;;-142.34;34.44
12951;BME280;6540;50.858;7.232;2022-10-15T09:30:51;51673.00;;;-142.34;34.56
12951;BME280;6540;50.858;7.232;2022-10-15T09:33:29;51673.00;;;-142.34;34.70
12951;BME280;6540;50.858;7.232;2022-10-15T09:43:56;51666.94;;;-142.34;35.56
12951;BME280;6540;50.858;7.232;2022-10-15T09:46:23;51648.78;;;-142.34;35.35
12951;BME280;6540;50.858;7.232;2022-10-15T09:51:33;51662.91;;;-142.34;35.35
12951;BME280;6540;50.858;7.232;2022-10-15T09:54:12;51636.69;;;-142.34;34.38
12951;BME280;6540;50.858;7.232;2022-10-15T09:56:50;51650.81;;;-142.34;34.58
12951;BME280;6540;50.858;7.232;2022-10-15T09:59:19;51711.31;;;-142.34;35.76
12951;BME280;6540;50.858;7.232;2022-10-15T10:02:20;51646.75;;;-142.34;34.07
12951;BME280;6540;50.858;7.232;2022-10-15T10:04:45;51608.44;;;-142.34;34.09
12951;BME280;6540;50.858;7.232;2022-10-15T10:07:32;51648.78;;;-142.34;34.96
12951;BME280;6540;50.858;7.232;2022-10-15T10:10:02;51640.72;;;-142.34;34.07
12951;BME280;6540;50.858;7.232;2022-10-15T10:12:31;51668.97;;;-142.34;35.59
12951;BME280;6540;50.858;7.232;2022-10-15T10:15:05;51636.69;;;-142.34;33.85
12951;BME280;6540;50.858;7.232;2022-10-15T10:17:32;51572.13;;;-142.34;33.25
12951;BME280;6540;50.858;7.232;2022-10-15T10:20:14;51628.63;;;-142.34;34.48
12951;BME280;6540;50.858;7.232;2022-10-15T10:25:32;51668.97;;;-142.34;35.37
12951;BME280;6540;50.858;7.232;2022-10-15T10:28:21;51580.19;;;-142.34;33.97
12951;BME280;6540;50.858;7.232;2022-10-15T10:33:28;51616.50;;;-142.34;34.02
12951;BME280;6540;50.858;7.232;2022-10-15T10:35:54;51584.22;;;-142.34;33.90
12951;BME280;6540;50.858;7.232;2022-10-15T10:38:25;51600.38;;;-142.34;34.21
12951;BME280;6540;50.858;7.232;2022-10-15T10:40:57;51624.56;;;-142.34;33.65
12951;BME280;6540;50.858;7.232;2022-10-15T10:43:27;51628.63;;;-142.34;34.53
12951;BME280;6540;50.858;7.232;2022-10-15T10:48:46;51600.38;;;-142.34;33.83
12951;BME280;6540;50.858;7.232;2022-10-15T10:51:17;51618.53;;;-142.34;34.41
12951;BME280;6540;50.858;7.232;2022-10-15T10:53:50;51596.34;;;-142.34;33.34
12951;BME280;6540;50.858;7.232;2022-10-15T10:56:20;51604.41;;;-142.34;33.20
12951;BME280;6540;50.858;7.232;2022-10-15T10:58:49;51610.47;;;-142.34;33.37
12951;BME280;6540;50.858;7.232;2022-10-15T11:01:16;51608.44;;;-142.34;33.83
12951;BME280;6540;50.858;7.232;2022-10-15T11:03:44;51636.69;;;-142.34;33.75
12951;BME280;6540;50.858;7.232;2022-10-15T11:09:26;51580.19;;;-142.34;33.47
12951;BME280;6540;50.858;7.232;2022-10-15T11:17:50;51608.44;;;-142.34;33.73
12951;BME280;6540;50.858;7.232;2022-10-15T11:20:27;51616.50;;;-142.34;34.75
12951;BME280;6540;50.858;7.232;2022-10-15T11:23:31;51648.78;;;-142.34;33.96
12951;BME280;6540;50.858;7.232;2022-10-15T11:29:00;51616.50;;;-142.34;34.30
12951;BME280;6540;50.858;7.232;2022-10-15T11:42:24;51630.63;;;-142.34;34.15
12951;BME280;6540;50.858;7.232;2022-10-15T11:55:49;51660.88;;;-142.34;34.26
12951;BME280;6540;50.858;7.232;2022-10-15T11:58:20;51646.75;;;-142.34;33.54
12951;BME280;6540;50.858;7.232;2022-10-15T12:00:57;51626.59;;;-142.34;34.02
12951;BME280;6540;50.858;7.232;2022-10-15T12:03:30;51624.56;;;-142.34;34.49
12951;BME280;6540;50.858;7.232;2022-10-15T12:06:08;51638.69;;;-142.34;34.09
12951;BME280;6540;50.858;7.232;2022-10-15T12:08:37;51656.84;;;-142.34;34.92
12951;BME280;6540;50.858;7.232;2022-10-15T12:13:52;51620.53;;;-142.34;33.62
12951;BME280;6540;50.858;7.232;2022-10-15T12:16:27;51628.63;;;-142.34;34.21
12951;BME280;6540;50.858;7.232;2022-10-15T12:19:24;51622.56;;;-142.34;33.45
12951;BME280;6540;50.858;7.232;2022-10-15T12:30:10;51620.53;;;-142.34;33.54
12951;BME280;6540;50.858;7.232;2022-10-15T12:32:30;51628.63;;;-142.34;33.15
12951;BME280;6540;50.858;7.232;2022-10-15T12:35:03;51612.47;;;-142.34;33.39
12951;BME280;6540;50.858;7.232;2022-10-15T12:37:32;51582.22;;;-142.34;33.20
12951;BME280;6540;50.858;7.232;2022-10-15T12:40:22;51604.41;;;-142.34;33.16
12951;BME280;6540;50.858;7.232;2022-10-15T12:42:50;51640.72;;;-142.34;34.09
12951;BME280;6540;50.858;7.232;2022-10-15T12:45:20;51652.81;;;-142.34;34.03
12951;BME280;6540;50.858;7.232;2022-10-15T12:50:25;51648.78;;;-142.34;34.52
12951;BME280;6540;50.858;7.232;2022-10-15T12:52:59;51600.38;;;-142.34;33.39
12951;BME280;6540;50.858;7.232;2022-10-15T12:55:29;51606.44;;;-142.34;34.84
12951;BME280;6540;50.858;7.232;2022-10-15T12:57:58;51620.53;;;-142.34;33.81
12951;BME280;6540;50.858;7.232;2022-10-15T13:00:35;51602.38;;;-142.34;33.49
12951;BME280;6540;50.858;7.232;2022-10-15T13:03:16;51586.25;;;-142.34;34.47
12951;BME280;6540;50.858;7.232;2022-10-15T13:05:42;51624.56;;;-142.34;34.10
12951;BME280;6540;50.858;7.232;2022-10-15T13:08:15;51620.53;;;-142.34;33.44
12951;BME280;6540;50.858;7.232;2022-10-15T13:10:49;51610.47;;;-142.34;33.21
12951;BME280;6540;50.858;7.232;2022-10-15T13:13:20;51602.38;;;-142.34;34.31
12951;BME280;6540;50.858;7.232;2022-10-15T13:15:57;51624.56;;;-142.34;33.97
12951;BME280;6540;50.858;7.232;2022-10-15T13:18:24;51614.50;;;-142.34;34.04
12951;BME280;6540;50.858;7.232;2022-10-15T13:20:50;51598.34;;;-142.34;33.90
12951;BME280;6540;50.858;7.232;2022-10-15T13:25:52;51586.25;;;-142.34;34.00
12951;BME280;6540;50.858;7.232;2022-10-15T13:28:33;51630.63;;;-142.34;34.00
12951;BME280;6540;50.858;7.232;2022-10-15T13:31:25;51610.47;;;-142.34;33.46
12951;BME280;6540;50.858;7.232;2022-10-15T13:33:53;51592.31;;;-142.34;33.44
12951;BME280;6540;50.858;7.232;2022-10-15T13:36:40;51594.31;;;-142.34;34.21
12951;BME280;6540;50.858;7.232;2022-10-15T13:39:18;51642.72;;;-142.34;35.27
12951;BME280;6540;50.858;7.232;2022-10-15T13:41:44;51600.38;;;-142.34;34.53
12951;BME280;6540;50.858;7.232;2022-10-15T13:44:23;51622.56;;;-142.34;34.91
12951;BME280;6540;50.858;7.232;2022-10-15T13:46:49;51604.41;;;-142.34;35.01
12951;BME280;6540;50.858;7.232;2022-10-15T13:49:16;51602.38;;;-142.34;34.96
12951;BME280;6540;50.858;7.232;2022-10-15T13:51:44;51600.38;;;-142.34;34.54
12951;BME280;6540;50.858;7.232;2022-10-15T13:54:15;51600.38;;;-142.34;34.46
12951;BME280;6540;50.858;7.232;2022-10-15T13:56:45;51606.44;;;-142.34;34.85
12951;BME280;6540;50.858;7.232;2022-10-15T13:59:16;51628.63;;;-142.34;34.73
12951;BME280;6540;50.858;7.232;2022-10-15T14:01:48;51640.72;;;-142.34;34.55
12951;BME280;6540;50.858;7.232;2022-10-15T14:04:18;51626.59;;;-142.34;34.87
12951;BME280;6540;50.858;7.232;2022-10-15T14:06:58;51636.69;;;-142.34;34.53
12951;BME280;6540;50.858;7.232;2022-10-15T14:09:36;51592.31;;;-142.34;33.75
12951;BME280;6540;50.858;7.232;2022-10-15T14:12:05;51608.44;;;-142.34;34.31
12951;BME280;6540;50.858;7.232;2022-10-15T14:14:39;51604.41;;;-142.34;33.52
12951;BME280;6540;50.858;7.232;2022-10-15T14:19:45;51610.47;;;-142.34;34.54
12951;BME280;6540;50.858;7.232;2022-10-15T14:22:17;51596.34;;;-142.34;33.68
12951;BME280;6540;50.858;7.232;2022-10-15T14:24:43;51648.78;;;-142.34;35.16
12951;BME280;6540;50.858;7.232;2022-10-15T14:27:14;51646.75;;;-142.34;34.99
12951;BME280;6540;50.858;7.232;2022-10-15T14:29:44;51632.66;;;-142.34;34.22
12951;BME280;6540;50.858;7.232;2022-10-15T14:34:45;51598.34;;;-142.34;34.05
12951;BME280;6540;50.858;7.232;2022-10-15T14:42:40;51570.13;;;-142.34;33.66
12951;BME280;6540;50.858;7.232;2022-10-15T14:45:31;51588.28;;;-142.34;33.67
12951;BME280;6540;50.858;7.232;2022-10-15T14:48:08;51602.38;;;-142.34;34.06
12951;BME280;6540;50.858;7.232;2022-10-15T14:50:35;51604.41;;;-142.34;33.87
12951;BME280;6540;50.858;7.232;2022-10-15T14:53:14;51568.09;;;-142.34;33.09
12951;BME280;6540;50.858;7.232;2022-10-15T14:55:46;51592.31;;;-142.34;33.82
12951;BME280;6540;50.858;7.232;2022-10-15T14:58:18;51592.31;;;-142.34;33.32
12951;BME280;6540;50.858;7.232;2022-10-15T15:00:54;51612.47;;;-142.34;33.66